Time;durP1;ratioP1;P1;durP2;ratioP2;P2;SDS_P1;SDS_P2;PMS_P1;PMS_P2;Temp;Humidity;BMP_temperature;BMP_pressure;BME280_temperature;BME280_humidity;BME280_pressure;Samples;Min_cycle;Max_cycle;Signal;HPM_P1;HPM_P2
2022/08/06 00:01:24;;;;;;;21.20;16.25;;;;;;;;;;6251518;28;20053;-61
2022/08/06 00:04:24;;;;;;;20.03;16.80;;;;;;;;;;6254829;28;20079;-61
2022/08/06 00:07:25;;;;;;;22.20;16.30;;;;;;;;;;6251793;28;20060;-57
2022/08/06 00:10:26;;;;;;;21.43;16.13;;;;;;;;;;6252567;28;20045;-56
2022/08/06 00:13:27;;;;;;;21.57;16.60;;;;;;;;;;6253411;28;20607;-59
2022/08/06 00:16:27;;;;;;;20.40;17.10;;;;;;;;;;6250856;28;20059;-61
2022/08/06 00:19:28;;;;;;;22.07;17.13;;;;;;;;;;6252667;28;20049;-62
2022/08/06 00:22:28;;;;;;;21.17;16.57;;;;;;;;;;6249405;28;20048;-59
2022/08/06 00:25:29;;;;;;;22.33;16.80;;;;;;;;;;6250946;28;20514;-60
2022/08/06 00:28:29;;;;;;;27.40;18.23;;;;;;;;;;6253823;28;20075;-58
2022/08/06 00:31:30;;;;;;;25.27;17.27;;;;;;;;;;6251957;28;20053;-58
2022/08/06 00:34:31;;;;;;;23.33;16.90;;;;;;;;;;6252885;28;20131;-61
2022/08/06 00:37:32;;;;;;;22.40;17.10;;;;;;;;;;6255203;28;20187;-61
2022/08/06 00:40:32;;;;;;;20.93;17.27;;;;;;;;;;6272360;28;20036;-60
2022/08/06 00:43:33;;;;;;;25.23;17.77;;;;;;;;;;6285089;28;20052;-62
2022/08/06 00:46:34;;;;;;;22.02;17.10;;;;;;;;;;6282378;28;20492;-60
2022/08/06 00:49:35;;;;;;;23.67;17.33;;;;;;;;;;6286852;28;20040;-61
2022/08/06 00:52:35;;;;;;;21.97;17.37;;;;;;;;;;6277336;28;20045;-61
2022/08/06 00:55:36;;;;;;;24.10;17.50;;;;;;;;;;6286960;28;20053;-59
2022/08/06 00:58:37;;;;;;;21.63;16.80;;;;;;;;;;6279104;28;20056;-61
2022/08/06 01:01:38;;;;;;;24.55;18.45;;;;;;;;;;6279312;28;20131;-61
2022/08/06 01:04:38;;;;;;;21.83;16.43;;;;;;;;;;6288402;28;20073;-62
2022/08/06 01:07:39;;;;;;;20.90;16.93;;;;;;;;;;6284435;28;20419;-61
2022/08/06 01:10:40;;;;;;;23.87;17.50;;;;;;;;;;6287081;28;20047;-60
2022/08/06 01:13:40;;;;;;;21.13;17.03;;;;;;;;;;6287299;28;20040;-62
2022/08/06 01:16:49;;;;;;;22.37;17.53;;;;;;;;;;6287273;28;20040;-61
2022/08/06 01:20:14;;;;;;;24.13;18.50;;;;;;;;;;6284951;28;20040;-61
2022/08/06 01:23:19;;;;;;;19.75;16.90;;;;;;;;;;6287006;28;20178;-60
2022/08/06 01:26:34;;;;;;;21.25;17.23;;;;;;;;;;6289209;28;20131;-62
2022/08/06 01:29:39;;;;;;;27.23;18.45;;;;;;;;;;6286305;28;20846;-56
2022/08/06 01:32:52;;;;;;;24.77;17.15;;;;;;;;;;6286754;28;20053;-61
2022/08/06 01:35:57;;;;;;;23.73;18.25;;;;;;;;;;6286547;28;20502;-61
2022/08/06 01:39:00;;;;;;;25.23;18.25;;;;;;;;;;6282919;28;20093;-61
2022/08/06 01:42:04;;;;;;;25.73;18.50;;;;;;;;;;6289185;28;20045;-60
2022/08/06 01:45:09;;;;;;;26.45;18.48;;;;;;;;;;6278902;28;20060;-61
2022/08/06 01:48:13;;;;;;;25.08;18.58;;;;;;;;;;6284235;28;20041;-60
2022/08/06 01:51:14;;;;;;;30.95;20.13;;;;;;;;;;6289685;28;20524;-61
2022/08/06 01:54:17;;;;;;;24.97;19.53;;;;;;;;;;6283642;28;20040;-61
2022/08/06 01:57:22;;;;;;;26.25;19.25;;;;;;;;;;6289350;28;20139;-61
2022/08/06 02:00:22;;;;;;;25.20;18.95;;;;;;;;;;6284485;28;20078;-61
2022/08/06 02:03:37;;;;;;;29.75;19.77;;;;;;;;;;6285060;28;20136;-62
2022/08/06 02:06:43;;;;;;;26.33;19.25;;;;;;;;;;6292085;28;20055;-61
2022/08/06 02:09:47;;;;;;;26.60;19.67;;;;;;;;;;6289494;28;20045;-61
2022/08/06 02:12:49;;;;;;;33.13;20.10;;;;;;;;;;6290582;28;20075;-60
2022/08/06 02:15:50;;;;;;;;;;;;;;;;;;6281918;28;20143;-61
2022/08/06 02:18:52;;;;;;;28.10;21.33;;;;;;;;;;6282612;28;19920;-61
2022/08/06 02:21:55;;;;;;;36.65;23.83;;;;;;;;;;6286901;28;20136;-62
2022/08/06 02:25:00;;;;;;;29.63;22.40;;;;;;;;;;6277513;28;20098;-61
2022/08/06 02:28:04;;;;;;;30.45;21.60;;;;;;;;;;6287172;28;20045;-59
2022/08/06 02:31:04;;;;;;;27.58;21.92;;;;;;;;;;6279138;28;20036;-61
2022/08/06 02:34:05;;;;;;;29.30;21.13;;;;;;;;;;6282325;28;20119;-61
2022/08/06 02:37:13;;;;;;;28.07;20.17;;;;;;;;;;6287852;28;20062;-60
2022/08/06 02:40:27;;;;;;;24.65;19.45;;;;;;;;;;6276943;28;20139;-58
2022/08/06 02:43:35;;;;;;;22.90;17.83;;;;;;;;;;6276274;28;20060;-62
2022/08/06 02:46:46;;;;;;;25.65;17.92;;;;;;;;;;6279502;28;20562;-61
2022/08/06 02:49:50;;;;;;;24.17;16.92;;;;;;;;;;6284507;28;20124;-60
2022/08/06 02:53:01;;;;;;;22.10;15.63;;;;;;;;;;6291852;28;20135;-62
2022/08/06 02:56:09;;;;;;;19.10;15.25;;;;;;;;;;6279192;28;20047;-60
2022/08/06 02:59:12;;;;;;;19.73;15.13;;;;;;;;;;6291070;28;20097;-60
2022/08/06 03:02:16;;;;;;;19.55;14.73;;;;;;;;;;6290073;28;20816;-61
2022/08/06 03:05:20;;;;;;;17.20;14.02;;;;;;;;;;6281213;28;20160;-61
2022/08/06 03:08:24;;;;;;;18.10;14.02;;;;;;;;;;6285675;28;20739;-60
2022/08/06 03:11:28;;;;;;;18.10;13.35;;;;;;;;;;6280819;28;20155;-61
2022/08/06 03:14:32;;;;;;;20.85;12.60;;;;;;;;;;6281196;28;20480;-61
2022/08/06 03:17:35;;;;;;;18.25;12.40;;;;;;;;;;6289335;28;20059;-61
2022/08/06 03:20:37;;;;;;;16.73;12.35;;;;;;;;;;6288505;28;20549;-59
2022/08/06 03:23:39;;;;;;;15.02;11.68;;;;;;;;;;6284569;28;20049;-61
2022/08/06 03:26:41;;;;;;;14.82;11.40;;;;;;;;;;6288132;28;20067;-62
2022/08/06 03:29:43;;;;;;;14.30;11.48;;;;;;;;;;6279863;28;20044;-61
2022/08/06 03:32:44;;;;;;;;;;;;;;;;;;6293986;28;20054;-58
2022/08/06 03:35:45;;;;;;;14.98;11.38;;;;;;;;;;6293012;28;20010;-61
2022/08/06 03:39:00;;;;;;;17.15;10.68;;;;;;;;;;6290772;28;20051;-59
2022/08/06 03:42:00;;;;;;;12.88;10.80;;;;;;;;;;6288013;28;20046;-61
2022/08/06 03:45:01;;;;;;;15.17;10.30;;;;;;;;;;6290168;28;20052;-56
2022/08/06 03:48:04;;;;;;;14.73;11.27;;;;;;;;;;6289405;28;20083;-59
2022/08/06 03:51:17;;;;;;;15.30;10.90;;;;;;;;;;6277678;28;20053;-61
2022/08/06 03:54:24;;;;;;;15.93;11.35;;;;;;;;;;6283349;28;20050;-62
2022/08/06 03:57:30;;;;;;;14.82;10.23;;;;;;;;;;6292238;28;20053;-62
2022/08/06 04:00:40;;;;;;;14.45;10.32;;;;;;;;;;6285310;28;20051;-63
2022/08/06 04:03:42;;;;;;;14.43;10.90;;;;;;;;;;6281135;28;20625;-63
2022/08/06 04:06:43;;;;;;;;;;;;;;;;;;6283844;28;20585;-61
2022/08/06 04:09:44;;;;;;;14.60;10.73;;;;;;;;;;6283743;28;19921;-63
2022/08/06 04:12:45;;;;;;;13.27;10.10;;;;;;;;;;6279234;28;20075;-60
2022/08/06 04:15:47;;;;;;;13.90;10.23;;;;;;;;;;6290904;28;20052;-62
2022/08/06 04:18:48;;;;;;;12.45;10.07;;;;;;;;;;6291959;28;20708;-63
2022/08/06 04:21:48;;;;;;;14.03;10.40;;;;;;;;;;6293967;28;20071;-63
2022/08/06 04:24:49;;;;;;;15.43;10.70;;;;;;;;;;6288053;28;20052;-62
2022/08/06 04:27:50;;;;;;;11.53;9.83;;;;;;;;;;6292857;28;20045;-62
2022/08/06 04:30:53;;;;;;;12.45;10.07;;;;;;;;;;6271907;28;20364;-62
2022/08/06 04:33:55;;;;;;;12.82;10.15;;;;;;;;;;6283691;28;20403;-62
2022/08/06 04:36:58;;;;;;;14.23;10.75;;;;;;;;;;6265245;28;20105;-63
2022/08/06 04:39:59;;;;;;;13.23;10.40;;;;;;;;;;6263229;28;20084;-63
2022/08/06 04:43:02;;;;;;;14.23;10.68;;;;;;;;;;6264554;28;20045;-63
2022/08/06 04:46:03;;;;;;;13.40;10.30;;;;;;;;;;6266791;28;20057;-61
2022/08/06 04:49:04;;;;;;;13.63;10.60;;;;;;;;;;6266973;28;20044;-63
2022/08/06 04:52:05;;;;;;;12.57;9.70;;;;;;;;;;6266478;28;20479;-62
2022/08/06 04:55:06;;;;;;;12.43;9.60;;;;;;;;;;6263790;28;20045;-64
2022/08/06 04:58:07;;;;;;;13.32;10.02;;;;;;;;;;6266909;28;20056;-65
2022/08/06 05:01:08;;;;;;;13.70;10.13;;;;;;;;;;6264068;28;20053;-64
2022/08/06 05:04:09;;;;;;;12.17;10.20;;;;;;;;;;6261402;28;20176;-63
2022/08/06 05:07:30;;;;;;;13.03;10.10;;;;;;;;;;6265419;28;20048;-63
2022/08/06 05:10:37;;;;;;;12.70;10.27;;;;;;;;;;6261293;28;20496;-64
2022/08/06 05:13:39;;;;;;;14.00;10.38;;;;;;;;;;6258756;28;20468;-63
2022/08/06 05:16:43;;;;;;;12.95;10.07;;;;;;;;;;6262859;28;20045;-64
2022/08/06 05:19:50;;;;;;;13.30;9.65;;;;;;;;;;6261820;28;20510;-62
2022/08/06 05:22:55;;;;;;;14.90;10.15;;;;;;;;;;6265017;28;20055;-62
2022/08/06 05:25:55;;;;;;;14.20;10.13;;;;;;;;;;6266819;28;20068;-61
2022/08/06 05:28:56;;;;;;;14.57;9.40;;;;;;;;;;6275967;28;20552;-64
2022/08/06 05:31:59;;;;;;;16.83;10.40;;;;;;;;;;6270212;28;20135;-62
2022/08/06 05:34:59;;;;;;;16.63;9.80;;;;;;;;;;6265218;28;20048;-63
2022/08/06 05:38:00;;;;;;;13.67;9.83;;;;;;;;;;6268520;28;20055;-63
2022/08/06 05:41:00;;;;;;;13.30;9.77;;;;;;;;;;6263424;28;20041;-63
2022/08/06 05:44:02;;;;;;;14.00;10.03;;;;;;;;;;6262199;28;20057;-62
2022/08/06 05:47:06;;;;;;;12.00;9.30;;;;;;;;;;6265757;28;20056;-61
2022/08/06 05:50:14;;;;;;;13.90;10.40;;;;;;;;;;6265027;28;20095;-63
2022/08/06 05:53:23;;;;;;;13.82;10.40;;;;;;;;;;6264918;28;20041;-60
2022/08/06 05:56:29;;;;;;;14.20;11.25;;;;;;;;;;6268006;28;20168;-61
2022/08/06 05:59:34;;;;;;;15.93;11.57;;;;;;;;;;6278591;28;20044;-61
2022/08/06 06:02:39;;;;;;;18.45;12.45;;;;;;;;;;6267342;28;20571;-59
2022/08/06 06:05:40;;;;;;;15.30;13.57;;;;;;;;;;6264300;28;20048;-61
2022/08/06 06:08:41;;;;;;;15.82;12.73;;;;;;;;;;6280307;28;20045;-60
2022/08/06 06:11:42;;;;;;;15.30;13.65;;;;;;;;;;6266168;28;20566;-61
2022/08/06 06:14:45;;;;;;;13.85;11.93;;;;;;;;;;6265097;28;20140;-61
2022/08/06 06:17:57;;;;;;;12.98;11.45;;;;;;;;;;6267186;28;20474;-60
2022/08/06 06:21:21;;;;;;;15.98;11.95;;;;;;;;;;6266691;28;20139;-61
2022/08/06 06:24:46;;;;;;;15.50;11.57;;;;;;;;;;6274697;28;20113;-61
2022/08/06 06:27:57;;;;;;;14.35;11.93;;;;;;;;;;6286121;28;20143;-61
2022/08/06 06:31:01;;;;;;;18.63;11.93;;;;;;;;;;6287176;28;20550;-60
2022/08/06 06:34:07;;;;;;;15.88;11.90;;;;;;;;;;6295783;28;20135;-58
2022/08/06 06:37:13;;;;;;;12.77;11.27;;;;;;;;;;6284093;28;20377;-62
2022/08/06 06:40:26;;;;;;;13.75;10.65;;;;;;;;;;6291810;28;20032;-61
2022/08/06 06:43:29;;;;;;;12.60;10.98;;;;;;;;;;6289967;28;20496;-57
2022/08/06 06:46:36;;;;;;;14.55;11.00;;;;;;;;;;6287175;28;20067;-59
2022/08/06 06:49:44;;;;;;;13.32;11.63;;;;;;;;;;6280879;28;20156;-62
2022/08/06 06:52:49;;;;;;;13.40;10.82;;;;;;;;;;6269764;28;20045;-59
2022/08/06 06:55:56;;;;;;;12.82;10.40;;;;;;;;;;6270439;28;20050;-60
2022/08/06 06:59:12;;;;;;;12.75;10.02;;;;;;;;;;6269853;28;20084;-61
2022/08/06 07:02:19;;;;;;;12.07;10.15;;;;;;;;;;6280951;28;20511;-60
2022/08/06 07:05:21;;;;;;;12.57;10.50;;;;;;;;;;6283145;28;20064;-59
2022/08/06 07:08:22;;;;;;;;;;;;;;;;;;6289152;28;20048;-59
2022/08/06 07:11:24;;;;;;;13.27;10.10;;;;;;;;;;6285315;28;19921;-57
2022/08/06 07:14:28;;;;;;;13.93;9.70;;;;;;;;;;6294164;28;20052;-61
2022/08/06 07:17:31;;;;;;;9.77;8.77;;;;;;;;;;6277367;28;20060;-62
2022/08/06 07:20:33;;;;;;;12.35;9.50;;;;;;;;;;6267657;28;20132;-59
2022/08/06 07:23:34;;;;;;;11.77;9.00;;;;;;;;;;6269878;28;20143;-60
2022/08/06 07:26:35;;;;;;;11.75;8.60;;;;;;;;;;6279243;28;20042;-58
2022/08/06 07:29:37;;;;;;;;;;;;;;;;;;6270368;28;20143;-58
2022/08/06 07:32:38;;;;;;;10.10;7.97;;;;;;;;;;6269691;28;19932;-60
2022/08/06 07:35:41;;;;;;;11.30;7.75;;;;;;;;;;6267728;28;20060;-61
2022/08/06 07:38:44;;;;;;;10.82;7.07;;;;;;;;;;6265774;28;20078;-61
2022/08/06 07:41:47;;;;;;;8.57;7.03;;;;;;;;;;6262083;28;20047;-56
2022/08/06 07:44:50;;;;;;;8.32;6.65;;;;;;;;;;6265532;28;20059;-57
2022/08/06 07:47:53;;;;;;;7.50;5.88;;;;;;;;;;6265414;28;20407;-57
2022/08/06 07:50:56;;;;;;;9.05;6.00;;;;;;;;;;6263954;28;20051;-61
2022/08/06 07:53:58;;;;;;;7.13;6.03;;;;;;;;;;6260611;28;20811;-60
2022/08/06 07:56:59;;;;;;;6.60;5.47;;;;;;;;;;6266128;28;20677;-58
2022/08/06 08:00:00;;;;;;;6.90;5.30;;;;;;;;;;6263033;28;20175;-56
2022/08/06 08:06:23;;;;;;;7.68;5.63;;;;;;;;;;6250164;28;20127;-59
2022/08/06 08:09:24;;;;;;;7.00;4.78;;;;;;;;;;6265066;28;20049;-60
2022/08/06 08:12:26;;;;;;;7.80;3.92;;;;;;;;;;6267903;28;20555;-61
2022/08/06 08:15:26;;;;;;;;;;;;;;;;;;6266600;28;20536;-60
2022/08/06 08:18:31;;;;;;;5.68;3.08;;;;;;;;;;6267211;28;19963;-61
2022/08/06 08:21:32;;;;;;;4.25;2.60;;;;;;;;;;6267738;28;20155;-58
2022/08/06 08:24:35;;;;;;;3.93;2.00;;;;;;;;;;6261425;28;20783;-61
2022/08/06 08:27:36;;;;;;;4.45;2.13;;;;;;;;;;6270188;28;20504;-59
2022/08/06 08:30:39;;;;;;;3.37;1.97;;;;;;;;;;6260134;28;20079;-61
2022/08/06 08:33:40;;;;;;;4.88;2.30;;;;;;;;;;6267356;28;20056;-56
2022/08/06 08:36:41;;;;;;;3.50;2.30;;;;;;;;;;6265658;28;20140;-57
2022/08/06 08:39:41;;;;;;;4.47;2.43;;;;;;;;;;6265045;28;20068;-61
2022/08/06 08:42:48;;;;;;;4.97;2.57;;;;;;;;;;6265759;28;20075;-57
2022/08/06 08:45:50;;;;;;;5.10;2.38;;;;;;;;;;6267272;28;20064;-59
2022/08/06 08:48:53;;;;;;;4.63;2.45;;;;;;;;;;6265152;28;20149;-60
2022/08/06 08:51:55;;;;;;;4.88;2.70;;;;;;;;;;6263242;28;20473;-60
2022/08/06 08:55:00;;;;;;;5.13;2.60;;;;;;;;;;6264690;28;20457;-59
2022/08/06 08:58:01;;;;;;;5.88;2.80;;;;;;;;;;6265676;28;20046;-61
2022/08/06 09:01:21;;;;;;;6.00;3.00;;;;;;;;;;6265637;28;20423;-60
2022/08/06 09:04:23;;;;;;;8.93;2.60;;;;;;;;;;6264746;28;20493;-58
2022/08/06 09:07:26;;;;;;;4.32;2.80;;;;;;;;;;6262631;28;20045;-61
2022/08/06 09:10:29;;;;;;;5.25;2.80;;;;;;;;;;6268352;28;20053;-59
2022/08/06 09:13:30;;;;;;;5.00;2.90;;;;;;;;;;6263926;28;20472;-58
2022/08/06 09:16:31;;;;;;;6.60;2.90;;;;;;;;;;6262853;28;20041;-61
2022/08/06 09:19:34;;;;;;;6.88;2.80;;;;;;;;;;6258302;28;20045;-60
2022/08/06 09:22:34;;;;;;;3.43;2.03;;;;;;;;;;6264301;28;20571;-58
2022/08/06 09:25:50;;;;;;;3.27;2.07;;;;;;;;;;6262941;28;20055;-58
2022/08/06 09:28:50;;;;;;;3.58;2.10;;;;;;;;;;6262340;28;20139;-55
2022/08/06 09:31:51;;;;;;;3.97;2.33;;;;;;;;;;6261127;28;20095;-60
2022/08/06 09:34:55;;;;;;;3.53;2.40;;;;;;;;;;6262372;28;20048;-58
2022/08/06 09:38:01;;;;;;;3.67;2.30;;;;;;;;;;6263131;28;20491;-61
2022/08/06 09:41:10;;;;;;;3.17;1.75;;;;;;;;;;6265331;28;20169;-61
2022/08/06 09:44:11;;;;;;;3.63;2.08;;;;;;;;;;6261417;28;20048;-61
2022/08/06 09:47:19;;;;;;;4.40;2.07;;;;;;;;;;6260577;28;20068;-61
2022/08/06 09:50:43;;;;;;;3.03;2.10;;;;;;;;;;6261770;28;20060;-61
2022/08/06 09:53:58;;;;;;;5.47;3.22;;;;;;;;;;6262150;28;20095;-59
2022/08/06 09:56:59;;;;;;;7.57;4.20;;;;;;;;;;6265931;28;20045;-60
2022/08/06 09:59:59;;;;;;;6.77;5.07;;;;;;;;;;6266424;28;20079;-61
2022/08/06 10:03:05;;;;;;;8.00;4.97;;;;;;;;;;6263083;28;20106;-59
2022/08/06 10:06:10;;;;;;;6.03;3.88;;;;;;;;;;6262962;28;20048;-58
2022/08/06 10:09:12;;;;;;;5.82;4.03;;;;;;;;;;6264068;28;20044;-61
2022/08/06 10:12:20;;;;;;;5.47;4.40;;;;;;;;;;6263742;28;20116;-61
2022/08/06 10:15:30;;;;;;;5.97;4.20;;;;;;;;;;6262418;28;20975;-58
2022/08/06 10:18:34;;;;;;;6.22;5.00;;;;;;;;;;6262567;28;20053;-60
2022/08/06 10:21:35;;;;;;;7.18;4.88;;;;;;;;;;6262316;28;20076;-61
2022/08/06 10:24:41;;;;;;;5.63;4.43;;;;;;;;;;6256730;28;20515;-58
2022/08/06 10:27:42;;;;;;;7.72;4.78;;;;;;;;;;6259984;28;20157;-58
2022/08/06 10:30:44;;;;;;;6.03;4.80;;;;;;;;;;6255958;28;20462;-58
2022/08/06 10:33:54;;;;;;;6.45;4.40;;;;;;;;;;6264429;28;20183;-61
2022/08/06 10:37:06;;;;;;;6.13;4.47;;;;;;;;;;6265925;28;20116;-58
2022/08/06 10:40:08;;;;;;;5.38;4.35;;;;;;;;;;6269831;28;20056;-59
2022/08/06 10:43:10;;;;;;;5.65;3.45;;;;;;;;;;6283881;28;20128;-63
2022/08/06 10:46:15;;;;;;;4.70;3.10;;;;;;;;;;6274012;28;20071;-58
2022/08/06 10:49:17;;;;;;;4.43;3.25;;;;;;;;;;6282670;28;20091;-58
2022/08/06 10:52:18;;;;;;;3.75;2.70;;;;;;;;;;6273497;28;20136;-57
2022/08/06 10:55:20;;;;;;;5.55;2.40;;;;;;;;;;6264931;28;20048;-60
2022/08/06 10:58:21;;;;;;;3.63;2.30;;;;;;;;;;6277184;28;20124;-60
2022/08/06 11:01:29;;;;;;;4.13;2.50;;;;;;;;;;6265319;28;20510;-61
2022/08/06 11:04:36;;;;;;;3.70;2.22;;;;;;;;;;6267832;28;20140;-59
2022/08/06 11:07:46;;;;;;;4.55;2.85;;;;;;;;;;6280051;28;20404;-57
2022/08/06 11:11:06;;;;;;;4.88;2.92;;;;;;;;;;6275198;28;20568;-58
2022/08/06 11:14:10;;;;;;;5.90;3.20;;;;;;;;;;6287446;28;20040;-59
2022/08/06 11:17:11;;;;;;;5.82;3.83;;;;;;;;;;6286886;28;20139;-63
2022/08/06 11:20:36;;;;;;;5.30;3.60;;;;;;;;;;6283469;28;20045;-62
2022/08/06 11:23:37;;;;;;;6.15;4.15;;;;;;;;;;6277677;28;20136;-57
2022/08/06 11:26:43;;;;;;;4.70;3.63;;;;;;;;;;6287600;28;20045;-56
2022/08/06 11:30:08;;;;;;;7.00;4.20;;;;;;;;;;6281538;28;20124;-64
2022/08/06 11:33:10;;;;;;;5.68;3.72;;;;;;;;;;6268624;28;20723;-61
2022/08/06 11:36:23;;;;;;;;;;;;;;;;;;6268712;28;20048;-61
2022/08/06 11:39:26;;;;;;;6.32;4.22;;;;;;;;;;6262432;28;19935;-63
2022/08/06 11:42:42;;;;;;;5.88;4.13;;;;;;;;;;6285136;28;20250;-59
2022/08/06 11:46:21;;;;;;;6.22;3.80;;;;;;;;;;6283781;28;20539;-62
2022/08/06 11:49:36;;;;;;;5.63;4.05;;;;;;;;;;6287828;28;20134;-58
2022/08/06 11:52:41;;;;;;;5.45;3.58;;;;;;;;;;6282881;28;20049;-56
2022/08/06 11:56:04;;;;;;;5.75;3.97;;;;;;;;;;6284330;28;20052;-58
2022/08/06 11:59:13;;;;;;;7.95;4.72;;;;;;;;;;6288828;28;20502;-62
2022/08/06 12:02:17;;;;;;;5.97;4.57;;;;;;;;;;6287529;28;20665;-60
2022/08/06 12:05:17;;;;;;;7.57;4.80;;;;;;;;;;6288870;28;20040;-61
2022/08/06 12:08:20;;;;;;;6.72;5.22;;;;;;;;;;6284867;28;20059;-60
2022/08/06 12:11:28;;;;;;;7.63;5.40;;;;;;;;;;6282559;28;20052;-61
2022/08/06 12:14:43;;;;;;;8.52;5.93;;;;;;;;;;6287195;28;20730;-61
2022/08/06 12:17:53;;;;;;;8.60;5.85;;;;;;;;;;6281040;28;20049;-61
2022/08/06 12:20:53;;;;;;;7.93;6.15;;;;;;;;;;6268535;28;20484;-62
2022/08/06 12:23:54;;;;;;;7.88;6.18;;;;;;;;;;6272462;28;20063;-62
2022/08/06 12:26:55;;;;;;;7.93;6.00;;;;;;;;;;6277958;28;20144;-62
2022/08/06 12:29:57;;;;;;;10.03;6.03;;;;;;;;;;6284843;28;20462;-62
2022/08/06 12:33:01;;;;;;;7.05;5.57;;;;;;;;;;6280540;28;20081;-61
2022/08/06 12:36:02;;;;;;;8.60;5.65;;;;;;;;;;6288953;28;20083;-59
2022/08/06 12:39:06;;;;;;;8.90;5.50;;;;;;;;;;6286207;28;20118;-62
2022/08/06 12:42:21;;;;;;;9.68;6.03;;;;;;;;;;6277566;28;20578;-61
2022/08/06 12:45:25;;;;;;;8.98;5.80;;;;;;;;;;6264409;28;20183;-62
2022/08/06 12:48:26;;;;;;;7.85;6.15;;;;;;;;;;6268563;28;20072;-61
2022/08/06 12:51:27;;;;;;;9.75;7.45;;;;;;;;;;6266583;28;20056;-58
2022/08/06 12:54:28;;;;;;;10.85;7.20;;;;;;;;;;6267169;28;20110;-60
2022/08/06 12:57:31;;;;;;;11.77;7.85;;;;;;;;;;6267892;28;20140;-59
2022/08/06 13:00:32;;;;;;;10.35;7.97;;;;;;;;;;6269418;28;20052;-63
2022/08/06 13:03:36;;;;;;;10.90;8.18;;;;;;;;;;6257567;28;20084;-62
2022/08/06 13:06:37;;;;;;;12.05;7.97;;;;;;;;;;6265712;28;20296;-61
2022/08/06 13:09:38;;;;;;;11.93;8.68;;;;;;;;;;6263672;28;20403;-61
2022/08/06 13:12:39;;;;;;;10.30;8.10;;;;;;;;;;6260735;28;20049;-60
2022/08/06 13:15:40;;;;;;;14.60;9.02;;;;;;;;;;6263277;28;20948;-62
2022/08/06 13:18:42;;;;;;;12.60;8.65;;;;;;;;;;6266648;28;20048;-59
2022/08/06 13:21:45;;;;;;;11.93;8.18;;;;;;;;;;6261811;28;20487;-62
2022/08/06 13:24:45;;;;;;;10.73;8.65;;;;;;;;;;6261679;28;20129;-62
2022/08/06 13:27:46;;;;;;;12.30;8.27;;;;;;;;;;6260013;28;20490;-62
2022/08/06 13:30:47;;;;;;;12.87;8.10;;;;;;;;;;6265905;28;20182;-62
2022/08/06 13:34:02;;;;;;;9.98;7.70;;;;;;;;;;6264375;28;20439;-61
2022/08/06 13:37:03;;;;;;;12.63;8.73;;;;;;;;;;6265116;28;20045;-60
2022/08/06 13:40:04;;;;;;;13.02;8.70;;;;;;;;;;6267705;28;20045;-63
2022/08/06 13:43:06;;;;;;;10.37;8.03;;;;;;;;;;6263009;28;20049;-62
2022/08/06 13:46:15;;;;;;;13.45;9.35;;;;;;;;;;6259083;28;20145;-61
2022/08/06 13:49:15;;;;;;;12.48;9.52;;;;;;;;;;6264254;28;20547;-60
2022/08/06 13:52:16;;;;;;;13.32;10.25;;;;;;;;;;6261925;28;20136;-61
2022/08/06 13:55:22;;;;;;;12.35;9.68;;;;;;;;;;6265845;28;22260;-62
2022/08/06 13:58:23;;;;;;;12.77;9.25;;;;;;;;;;6265020;28;20144;-61
2022/08/06 14:01:23;;;;;;;15.40;9.85;;;;;;;;;;6262990;28;20053;-62
2022/08/06 14:04:25;;;;;;;12.55;9.30;;;;;;;;;;6262174;28;20067;-62
2022/08/06 14:07:25;;;;;;;13.07;8.68;;;;;;;;;;6264524;28;20048;-63
2022/08/06 14:10:26;;;;;;;11.55;8.40;;;;;;;;;;6266069;28;20067;-62
2022/08/06 14:13:27;;;;;;;10.43;7.55;;;;;;;;;;6264482;28;20048;-63
2022/08/06 14:16:27;;;;;;;9.53;7.20;;;;;;;;;;6266148;28;20143;-61
2022/08/06 14:19:28;;;;;;;12.73;7.70;;;;;;;;;;6264284;28;20053;-62
2022/08/06 14:22:29;;;;;;;9.10;6.90;;;;;;;;;;6262414;28;20411;-63
2022/08/06 14:25:29;;;;;;;7.67;6.47;;;;;;;;;;6264530;28;20045;-62
2022/08/06 14:28:30;;;;;;;9.40;7.47;;;;;;;;;;6267424;28;20087;-58
2022/08/06 14:31:32;;;;;;;9.40;6.57;;;;;;;;;;6265024;28;20045;-63
2022/08/06 14:34:34;;;;;;;9.25;6.78;;;;;;;;;;6259789;28;20131;-61
2022/08/06 14:37:34;;;;;;;;;;;;;;;;;;6265514;28;20057;-62
2022/08/06 14:47:13;;;;;;;8.45;6.57;;;;;;;;;;6265399;28;20502;-62
2022/08/06 14:50:14;;;;;;;9.80;6.67;;;;;;;;;;6263229;28;20056;-62
2022/08/06 14:53:14;;;;;;;10.93;6.87;;;;;;;;;;6265568;28;20135;-62
2022/08/06 14:56:15;;;;;;;10.80;6.63;;;;;;;;;;6265903;28;20068;-59
2022/08/06 14:59:16;;;;;;;7.25;6.40;;;;;;;;;;6268479;28;20045;-62
2022/08/06 15:02:16;;;;;;;11.67;6.97;;;;;;;;;;6270421;28;20041;-63
2022/08/06 15:05:18;;;;;;;10.17;6.50;;;;;;;;;;6262813;28;20485;-63
2022/08/06 15:08:18;;;;;;;8.07;6.27;;;;;;;;;;6266777;28;20151;-63
2022/08/06 15:11:19;;;;;;;9.90;6.77;;;;;;;;;;6272746;28;20262;-62
2022/08/06 15:14:20;;;;;;;7.57;6.33;;;;;;;;;;6267322;28;20121;-62
2022/08/06 15:17:20;;;;;;;9.13;6.13;;;;;;;;;;6268825;28;20131;-62
2022/08/06 15:20:21;;;;;;;7.87;5.50;;;;;;;;;;6269758;28;20625;-62
2022/08/06 15:23:21;;;;;;;10.63;5.93;;;;;;;;;;6267373;28;20091;-63
2022/08/06 15:26:24;;;;;;;8.00;5.70;;;;;;;;;;6265772;28;20049;-63
2022/08/06 15:29:24;;;;;;;23.17;16.67;;;;;;;;;;6267955;28;20057;-61
2022/08/06 15:32:25;;;;;;;15.47;11.10;;;;;;;;;;6268212;28;20056;-63
2022/08/06 15:35:26;;;;;;;10.77;6.50;;;;;;;;;;6264009;28;20049;-58
2022/08/06 15:38:28;;;;;;;7.63;5.80;;;;;;;;;;6266322;28;20311;-60
2022/08/06 15:41:30;;;;;;;7.80;6.00;;;;;;;;;;6267422;28;20179;-56
2022/08/06 15:44:31;;;;;;;8.82;5.53;;;;;;;;;;6265508;28;20080;-62
2022/08/06 15:47:31;;;;;;;7.50;5.40;;;;;;;;;;6266740;28;20044;-59
2022/08/06 15:50:32;;;;;;;11.97;5.83;;;;;;;;;;6266740;28;20472;-61
2022/08/06 15:53:33;;;;;;;8.97;6.37;;;;;;;;;;6270708;28;20057;-59
2022/08/06 15:56:33;;;;;;;9.10;6.40;;;;;;;;;;6264798;28;20085;-57
2022/08/06 15:59:34;;;;;;;6.83;5.37;;;;;;;;;;6261618;28;20132;-60
2022/08/06 16:02:34;;;;;;;8.23;5.50;;;;;;;;;;6264113;28;20053;-61
2022/08/06 16:05:37;;;;;;;8.23;5.63;;;;;;;;;;6266825;28;20068;-63
2022/08/06 16:08:39;;;;;;;8.00;6.65;;;;;;;;;;6267628;28;20049;-62
2022/08/06 16:11:39;;;;;;;8.88;6.72;;;;;;;;;;6265334;28;20132;-61
2022/08/06 16:14:40;;;;;;;17.33;12.87;;;;;;;;;;6264985;28;20471;-62
2022/08/06 16:17:41;;;;;;;11.43;6.23;;;;;;;;;;6266624;28;20166;-60
2022/08/06 16:20:43;;;;;;;8.53;6.30;;;;;;;;;;6267121;28;20102;-59
2022/08/06 16:23:43;;;;;;;11.23;8.10;;;;;;;;;;6262342;28;20487;-55
2022/08/06 16:26:44;;;;;;;9.43;7.10;;;;;;;;;;6266324;28;20044;-58
2022/08/06 16:29:45;;;;;;;10.43;7.57;;;;;;;;;;6270871;28;20121;-59
2022/08/06 16:32:47;;;;;;;13.07;6.40;;;;;;;;;;6265294;28;20487;-59
2022/08/06 16:35:50;;;;;;;9.40;5.70;;;;;;;;;;6265408;28;21303;-59
2022/08/06 16:38:50;;;;;;;8.75;5.50;;;;;;;;;;6267197;28;20405;-59
2022/08/06 16:41:51;;;;;;;8.03;5.80;;;;;;;;;;6267636;28;20140;-59
2022/08/06 16:44:51;;;;;;;6.23;5.17;;;;;;;;;;6263254;28;20053;-62
2022/08/06 16:47:54;;;;;;;8.90;5.00;;;;;;;;;;6267160;28;20075;-62
2022/08/06 16:50:54;;;;;;;7.55;5.00;;;;;;;;;;6267383;28;20127;-61
2022/08/06 16:53:55;;;;;;;6.60;5.07;;;;;;;;;;6264526;28;20059;-63
2022/08/06 16:56:56;;;;;;;7.90;4.90;;;;;;;;;;6266924;28;20415;-62
2022/08/06 16:59:56;;;;;;;8.50;5.30;;;;;;;;;;6261108;28;20140;-59
2022/08/06 17:02:56;;;;;;;5.67;4.63;;;;;;;;;;6264105;28;20051;-59
2022/08/06 17:05:58;;;;;;;10.77;6.00;;;;;;;;;;6264329;28;20491;-62
2022/08/06 17:09:00;;;;;;;8.47;4.60;;;;;;;;;;6264891;28;20051;-62
2022/08/06 17:12:01;;;;;;;6.88;4.85;;;;;;;;;;6264000;28;20048;-62
2022/08/06 17:15:03;;;;;;;9.93;5.00;;;;;;;;;;6265954;28;20049;-61
2022/08/06 17:18:04;;;;;;;6.68;4.97;;;;;;;;;;6265416;28;20133;-62
2022/08/06 17:21:04;;;;;;;7.20;5.40;;;;;;;;;;6266875;28;20036;-62
2022/08/06 17:24:05;;;;;;;7.93;5.20;;;;;;;;;;6264983;28;20461;-60
2022/08/06 17:27:07;;;;;;;7.77;5.07;;;;;;;;;;6263772;28;20044;-61
2022/08/06 17:30:10;;;;;;;;;;;;;;;;;;6265556;28;20051;-56
2022/08/06 17:33:11;;;;;;;11.98;6.68;;;;;;;;;;6266618;28;20031;-60
2022/08/06 17:36:12;;;;;;;11.77;8.00;;;;;;;;;;6262620;28;20143;-59
2022/08/06 17:39:12;;;;;;;15.33;8.70;;;;;;;;;;6249688;28;20515;-60
2022/08/06 17:42:13;;;;;;;11.83;6.20;;;;;;;;;;6253114;28;20134;-61
2022/08/06 17:45:14;;;;;;;8.37;5.30;;;;;;;;;;6252527;28;20687;-59
2022/08/06 17:48:15;;;;;;;6.38;4.65;;;;;;;;;;6253619;28;20049;-60
2022/08/06 17:51:16;;;;;;;7.57;5.07;;;;;;;;;;6256986;28;21563;-60
2022/08/06 17:54:16;;;;;;;11.60;5.43;;;;;;;;;;6263072;28;20049;-60
2022/08/06 17:57:18;;;;;;;8.60;4.70;;;;;;;;;;6257644;28;20052;-62
2022/08/06 18:00:19;;;;;;;;;;;;;;;;;;6267956;28;20122;-62
2022/08/06 18:03:19;;;;;;;6.20;5.00;;;;;;;;;;6262102;28;19933;-60
2022/08/06 18:06:20;;;;;;;9.33;5.57;;;;;;;;;;6262414;28;20075;-56
2022/08/06 18:09:21;;;;;;;8.23;6.07;;;;;;;;;;6258652;28;20049;-61
2022/08/06 18:12:21;;;;;;;9.13;6.30;;;;;;;;;;6263487;28;20056;-60
2022/08/06 18:15:23;;;;;;;10.40;6.73;;;;;;;;;;6263267;28;20048;-56
2022/08/06 18:18:24;;;;;;;8.02;5.70;;;;;;;;;;6262400;28;20134;-60